createdAt,value
2023-05-02T00:00:18.610Z,0.00
2023-05-02T00:05:17.409Z,0.00
2023-05-02T00:10:17.340Z,0.00
2023-05-02T00:15:17.181Z,0.00
2023-05-02T00:20:17.242Z,0.00
2023-05-02T00:25:17.229Z,0.00
2023-05-02T00:30:17.301Z,0.00
2023-05-02T00:35:17.329Z,0.00
2023-05-02T00:40:18.115Z,0.00
2023-05-02T00:45:18.605Z,0.00
2023-05-02T00:50:17.186Z,0.00
2023-05-02T00:55:18.506Z,0.00
2023-05-02T01:00:17.431Z,0.00
2023-05-02T01:05:17.868Z,0.00
2023-05-02T01:10:17.712Z,0.00
2023-05-02T01:15:17.213Z,0.00
2023-05-02T01:20:17.297Z,0.00
2023-05-02T01:25:17.250Z,0.00
2023-05-02T01:30:17.224Z,0.00
2023-05-02T01:35:17.323Z,0.00
2023-05-02T01:40:17.425Z,0.00
2023-05-02T01:45:19.645Z,0.00
2023-05-02T01:50:17.294Z,0.00
2023-05-02T01:55:17.440Z,0.00
2023-05-02T02:00:17.441Z,0.00
2023-05-02T02:05:17.299Z,0.00
2023-05-02T02:10:17.273Z,0.00
2023-05-02T02:15:17.868Z,0.00
2023-05-02T02:20:17.500Z,0.00
2023-05-02T02:25:18.247Z,0.00
2023-05-02T02:30:17.334Z,0.00
2023-05-02T02:35:17.288Z,0.00
2023-05-02T02:40:17.898Z,0.00
2023-05-02T02:45:17.295Z,0.00
2023-05-02T02:50:17.660Z,0.00
2023-05-02T02:55:17.643Z,0.00
2023-05-02T03:00:17.425Z,0.00
2023-05-02T03:05:17.284Z,0.00
2023-05-02T03:10:17.419Z,0.00
2023-05-02T03:15:17.517Z,0.00
2023-05-02T03:20:17.697Z,0.00
2023-05-02T03:25:17.718Z,0.00
2023-05-02T03:30:17.495Z,0.00
2023-05-02T03:35:17.265Z,0.00
2023-05-02T03:40:17.879Z,0.00
2023-05-02T03:45:18.792Z,0.00
2023-05-02T03:50:17.625Z,0.00
2023-05-02T03:55:17.736Z,0.00
2023-05-02T04:00:18.406Z,0.00
2023-05-02T04:05:17.485Z,0.00
2023-05-02T04:10:18.749Z,0.00
2023-05-02T04:15:18.088Z,0.00
2023-05-02T04:20:18.631Z,0.00
2023-05-02T04:25:17.732Z,0.00
2023-05-02T04:30:17.516Z,0.00
2023-05-02T04:35:17.876Z,0.00
2023-05-02T04:40:17.603Z,0.00
2023-05-02T04:45:17.408Z,0.00
2023-05-02T04:50:17.492Z,0.00
2023-05-02T04:55:18.054Z,0.00
2023-05-02T05:00:17.421Z,0.00
2023-05-02T05:05:18.016Z,0.00
2023-05-02T05:10:18.128Z,0.00
2023-05-02T05:15:17.856Z,0.00
2023-05-02T05:20:17.717Z,0.00
2023-05-02T05:25:17.632Z,0.00
2023-05-02T05:30:17.601Z,0.00
2023-05-02T05:35:17.930Z,0.00
2023-05-02T05:40:17.933Z,0.00
2023-05-02T05:45:19.381Z,0.00
2023-05-02T05:50:19.107Z,0.00
2023-05-02T05:55:18.022Z,0.00
2023-05-02T06:00:17.776Z,0.00
2023-05-02T06:05:17.688Z,0.00
2023-05-02T06:10:18.215Z,0.00
2023-05-02T06:15:18.299Z,0.00
2023-05-02T06:20:18.758Z,0.00
2023-05-02T06:25:17.809Z,0.00
2023-05-02T06:30:18.010Z,0.00
2023-05-02T06:35:17.702Z,0.00
2023-05-02T06:40:17.904Z,0.00
2023-05-02T06:45:18.057Z,0.00
2023-05-02T06:50:17.805Z,0.00
2023-05-02T06:55:18.371Z,0.00
2023-05-02T07:00:17.784Z,0.00
2023-05-02T07:05:17.652Z,0.00
2023-05-02T07:10:17.705Z,0.00
2023-05-02T07:15:18.344Z,0.00
2023-05-02T07:20:18.063Z,0.00
2023-05-02T07:25:18.916Z,0.00
2023-05-02T07:30:18.078Z,0.00
2023-05-02T07:35:17.718Z,0.00
2023-05-02T07:40:20.421Z,0.00
2023-05-02T07:45:19.504Z,0.00
2023-05-02T07:50:17.954Z,0.00
2023-05-02T07:55:18.018Z,0.00
2023-05-02T08:00:17.981Z,0.00
2023-05-02T08:05:18.327Z,0.00
2023-05-02T08:10:18.066Z,0.00
2023-05-02T08:15:17.642Z,0.00
2023-05-02T08:20:18.132Z,0.00
2023-05-02T08:25:18.110Z,0.00
2023-05-02T08:30:17.934Z,0.00
2023-05-02T08:35:18.193Z,0.00
2023-05-02T08:40:27.161Z,0.00
2023-05-02T08:45:17.948Z,0.00
2023-05-02T08:50:18.121Z,0.00
2023-05-02T08:55:18.108Z,0.00
2023-05-02T09:00:18.075Z,0.00
2023-05-02T09:05:17.753Z,0.00
2023-05-02T09:10:18.063Z,0.00
2023-05-02T09:15:20.713Z,0.00
2023-05-02T09:20:18.170Z,0.00
2023-05-02T09:25:18.115Z,0.00
2023-05-02T09:30:17.831Z,0.00
2023-05-02T09:35:17.865Z,0.00
2023-05-02T09:40:18.396Z,0.00
2023-05-02T09:45:20.372Z,0.00
2023-05-02T09:50:17.841Z,0.00
2023-05-02T09:55:18.753Z,0.00
2023-05-02T10:00:17.974Z,0.00
2023-05-02T10:05:18.046Z,0.00
2023-05-02T10:10:18.572Z,0.00
2023-05-02T10:15:17.922Z,0.00
2023-05-02T10:20:18.812Z,0.00
2023-05-02T10:25:18.847Z,0.00
2023-05-02T10:30:18.452Z,0.00
2023-05-02T10:35:18.097Z,0.00
2023-05-02T10:40:18.030Z,0.00
2023-05-02T10:45:18.143Z,0.00
2023-05-02T10:50:18.140Z,0.00
2023-05-02T10:55:19.064Z,0.00
2023-05-02T11:00:18.390Z,0.00
2023-05-02T11:05:18.085Z,0.00
2023-05-02T11:10:18.719Z,0.00
2023-05-02T11:15:18.074Z,0.00
2023-05-02T11:20:18.042Z,0.00
2023-05-02T11:25:18.129Z,0.00
2023-05-02T11:30:18.357Z,0.00
2023-05-02T11:35:17.988Z,0.00
2023-05-02T11:40:18.343Z,0.00
2023-05-02T11:45:19.302Z,0.00
2023-05-02T11:50:18.061Z,0.00
2023-05-02T11:55:18.233Z,0.00
2023-05-02T12:00:18.386Z,0.00
2023-05-02T12:05:18.843Z,0.00
2023-05-02T12:10:18.718Z,0.00
2023-05-02T12:15:18.159Z,0.00
2023-05-02T12:20:18.354Z,0.00
2023-05-02T12:25:18.841Z,0.00
2023-05-02T12:30:18.383Z,0.00
2023-05-02T12:35:18.427Z,0.01
2023-05-02T12:40:18.324Z,0.05
2023-05-02T12:45:18.279Z,0.08
2023-05-02T12:50:18.276Z,0.08
2023-05-02T12:55:18.420Z,0.08
2023-05-02T13:00:18.492Z,0.08
2023-05-02T13:05:18.427Z,0.08
2023-05-02T13:10:18.484Z,0.08
2023-05-02T13:15:18.992Z,0.08
2023-05-02T13:20:18.655Z,0.08
2023-05-02T13:25:18.884Z,0.08
2023-05-02T13:30:18.558Z,0.08
2023-05-02T13:35:18.507Z,0.07
2023-05-02T13:40:19.294Z,0.03
2023-05-02T13:45:20.396Z,0.00
2023-05-02T13:50:18.785Z,0.00
2023-05-02T13:55:18.610Z,0.00
2023-05-02T14:00:18.671Z,0.00
2023-05-02T14:05:18.553Z,0.00
2023-05-02T14:10:18.621Z,0.00
2023-05-02T14:15:18.560Z,0.00
2023-05-02T14:20:18.917Z,0.00
2023-05-02T14:25:19.199Z,0.00
2023-05-02T14:30:17.476Z,0.00
2023-05-02T14:35:17.493Z,0.00
2023-05-02T14:40:17.345Z,0.00
2023-05-02T14:45:17.139Z,0.00
2023-05-02T14:50:17.416Z,0.00
2023-05-02T14:55:18.295Z,0.00
2023-05-02T15:00:17.313Z,0.00
2023-05-02T15:05:17.087Z,0.00
2023-05-02T15:10:17.586Z,0.00
2023-05-02T15:15:17.228Z,0.00
2023-05-02T15:20:17.231Z,0.00
2023-05-02T15:25:17.422Z,0.00
2023-05-02T15:30:18.068Z,0.00
2023-05-02T15:35:17.663Z,0.00
2023-05-02T15:40:17.722Z,0.00
2023-05-02T15:45:18.732Z,0.00
2023-05-02T15:50:17.216Z,0.00
2023-05-02T15:55:17.363Z,0.00
2023-05-02T16:00:17.413Z,0.01
2023-05-02T16:05:17.563Z,0.01
2023-05-02T16:10:18.032Z,0.01
2023-05-02T16:15:17.254Z,0.01
2023-05-02T16:20:17.273Z,0.01
2023-05-02T16:25:17.270Z,0.01
2023-05-02T16:30:17.497Z,0.01
2023-05-02T16:35:17.210Z,0.01
2023-05-02T16:40:17.972Z,0.01
2023-05-02T16:45:17.292Z,0.01
2023-05-02T16:50:17.623Z,0.01
2023-05-02T16:55:17.414Z,0.01
2023-05-02T17:00:17.367Z,0.00
2023-05-02T17:05:17.301Z,0.00
2023-05-02T17:10:17.368Z,0.00
2023-05-02T17:15:17.622Z,0.00
2023-05-02T17:20:17.428Z,0.00
2023-05-02T17:25:17.693Z,0.00
2023-05-02T17:30:17.418Z,0.00
2023-05-02T17:35:17.337Z,0.00
2023-05-02T17:40:17.509Z,0.00
2023-05-02T17:45:19.486Z,0.00
2023-05-02T17:50:17.570Z,0.00
2023-05-02T17:55:19.046Z,0.00
2023-05-02T18:00:17.745Z,0.00
2023-05-02T18:05:17.579Z,0.01
2023-05-02T18:10:17.631Z,0.02
2023-05-02T18:15:17.348Z,0.03
2023-05-02T18:20:17.760Z,0.04
2023-05-02T18:25:17.749Z,0.04
2023-05-02T18:30:17.447Z,0.04
2023-05-02T18:35:17.437Z,0.04
2023-05-02T18:40:17.775Z,0.04
2023-05-02T18:45:17.573Z,0.05
2023-05-02T18:50:17.467Z,0.06
2023-05-02T18:55:18.254Z,0.07
2023-05-02T19:00:17.514Z,0.08
2023-05-02T19:05:17.471Z,0.08
2023-05-02T19:10:18.085Z,0.08
2023-05-02T19:15:17.502Z,0.08
2023-05-02T19:20:17.562Z,0.08
2023-05-02T19:25:17.871Z,0.08
2023-05-02T19:30:18.118Z,0.09
2023-05-02T19:35:17.878Z,0.09
2023-05-02T19:40:17.834Z,0.09
2023-05-02T19:45:18.831Z,0.08
2023-05-02T19:50:17.707Z,0.07
2023-05-02T19:55:18.341Z,0.06
2023-05-02T20:00:17.742Z,0.05
2023-05-02T20:05:18.073Z,0.04
2023-05-02T20:10:18.085Z,0.03
2023-05-02T20:15:17.520Z,0.02
2023-05-02T20:20:17.964Z,0.01
2023-05-02T20:25:17.872Z,0.01
2023-05-02T20:30:17.693Z,0.00
2023-05-02T20:35:18.647Z,0.00
2023-05-02T20:40:18.654Z,0.00
2023-05-02T20:45:18.348Z,0.00
2023-05-02T20:50:18.662Z,0.00
2023-05-02T20:55:18.455Z,0.00
2023-05-02T21:00:18.546Z,0.00
2023-05-02T21:05:18.638Z,0.00
2023-05-02T21:35:18.375Z,0.00
2023-05-02T21:40:17.368Z,0.01
2023-05-02T21:45:18.951Z,0.01
2023-05-02T21:50:17.429Z,0.03
2023-05-02T21:55:17.292Z,0.03
2023-05-02T22:00:17.473Z,0.04
2023-05-02T22:05:17.106Z,0.04
2023-05-02T22:10:17.537Z,0.04
2023-05-02T22:15:17.139Z,0.05
2023-05-02T22:20:17.678Z,0.05
2023-05-02T22:25:17.311Z,0.06
2023-05-02T22:30:17.298Z,0.07
2023-05-02T22:35:17.348Z,0.08
2023-05-02T22:40:18.754Z,0.07
2023-05-02T22:45:17.213Z,0.07
2023-05-02T22:50:17.761Z,0.05
2023-05-02T22:55:17.360Z,0.05
2023-05-02T23:00:17.224Z,0.04
2023-05-02T23:05:17.310Z,0.04
2023-05-02T23:10:17.352Z,0.04
2023-05-02T23:15:17.142Z,0.03
2023-05-02T23:20:17.302Z,0.03
2023-05-02T23:25:17.547Z,0.02
2023-05-02T23:30:17.239Z,0.01
2023-05-02T23:35:17.382Z,0.00
2023-05-02T23:40:18.021Z,0.00
2023-05-02T23:45:18.676Z,0.00
2023-05-02T23:50:17.455Z,0.00
2023-05-02T23:55:18.392Z,0.00
